Time;durP1;ratioP1;P1;durP2;ratioP2;P2;SDS_P1;SDS_P2;PMS_P1;PMS_P2;Temp;Humidity;BMP_temperature;BMP_pressure;BME280_temperature;BME280_humidity;BME280_pressure;Samples;Min_cycle;Max_cycle;Signal;HPM_P1;HPM_P2
2022/11/24 00:00:05;;;;;;;;;;;9.10;85.40;;;;;;5077908;28;19939;-85
2022/11/24 00:02:30;;;;;;;;;;;9.20;85.50;;;;;;5070628;28;19920;-84
2022/11/24 00:04:56;;;;;;;;;;;9.20;85.50;;;;;;5087472;28;19923;-85
2022/11/24 00:07:21;;;;;;;;;;;9.20;85.30;;;;;;5086861;28;19912;-85
2022/11/24 00:09:46;;;;;;;;;;;9.10;85.40;;;;;;5090654;28;19900;-84
2022/11/24 00:12:12;;;;;;;;;;;9.10;85.20;;;;;;5088120;28;19959;-85
2022/11/24 00:14:37;;;;;;;;;;;9.10;85.50;;;;;;5095442;28;19923;-85
2022/11/24 00:17:03;;;;;;;;;;;9.00;85.40;;;;;;5090962;28;19927;-85
2022/11/24 00:19:28;;;;;;;;;;;9.00;85.40;;;;;;5075804;28;19919;-85
2022/11/24 00:21:54;;;;;;;;;;;9.00;85.50;;;;;;5069087;28;19912;-85
2022/11/24 00:24:19;;;;;;;;;;;8.90;85.50;;;;;;5081538;28;19984;-85
2022/11/24 00:26:45;;;;;;;;;;;9.00;85.20;;;;;;5092701;28;19919;-84
2022/11/24 00:29:10;;;;;;;;;;;9.00;85.00;;;;;;5084257;28;19939;-84
2022/11/24 00:31:37;;;;;;;;;;;9.00;84.90;;;;;;5086909;28;19941;-85
2022/11/24 00:34:04;;;;;;;;;;;8.90;85.00;;;;;;5068345;28;19974;-84
2022/11/24 00:36:31;;;;;;;;;;;8.90;85.20;;;;;;5070284;28;19982;-85
2022/11/24 00:38:57;;;;;;;;;;;8.90;85.00;;;;;;5067793;28;19916;-85
2022/11/24 00:41:23;;;;;;;;;;;8.90;85.30;;;;;;5085817;28;19912;-85
2022/11/24 00:43:49;;;;;;;;;;;8.80;85.10;;;;;;5085693;28;19928;-85
2022/11/24 00:46:15;;;;;;;;;;;8.90;85.10;;;;;;5072226;28;19912;-85
2022/11/24 00:48:40;;;;;;;;;;;8.80;84.90;;;;;;5074300;28;19931;-85
2022/11/24 00:51:06;;;;;;;;;;;8.80;85.00;;;;;;5089173;28;19919;-85
2022/11/24 00:53:32;;;;;;;;;;;8.80;85.00;;;;;;5107176;28;19927;-84
2022/11/24 00:55:58;;;;;;;;;;;8.80;85.30;;;;;;5082786;28;19912;-85
2022/11/24 00:58:23;;;;;;;;;;;8.80;84.70;;;;;;5078639;28;19920;-85
2022/11/24 01:00:50;;;;;;;;;;;8.80;84.60;;;;;;5078782;28;19912;-84
2022/11/24 01:03:15;;;;;;;;;;;8.80;84.60;;;;;;5085960;28;19916;-84
2022/11/24 01:05:41;;;;;;;;;;;8.80;84.70;;;;;;5069393;28;19969;-84
2022/11/24 01:08:06;;;;;;;;;;;8.90;84.60;;;;;;5069347;28;20373;-83
2022/11/24 01:10:32;;;;;;;;;;;8.90;84.10;;;;;;5066933;28;19912;-83
2022/11/24 01:12:58;;;;;;;;;;;8.90;84.00;;;;;;5066988;28;19969;-83
2022/11/24 01:15:24;;;;;;;;;;;8.90;83.90;;;;;;5086418;28;19920;-83
2022/11/24 01:17:49;;;;;;;;;;;8.80;84.10;;;;;;5084226;28;19917;-83
2022/11/24 01:20:14;;;;;;;;;;;8.80;84.00;;;;;;5076298;28;20396;-83
2022/11/24 01:22:43;;;;;;;;;;;8.80;84.20;;;;;;5088555;28;20376;-83
2022/11/24 01:25:09;;;;;;;;;;;8.80;84.10;;;;;;5065545;28;19931;-84
2022/11/24 01:27:35;;;;;;;;;;;8.80;84.20;;;;;;5085418;28;20410;-84
2022/11/24 01:30:00;;;;;;;;;;;8.80;84.00;;;;;;5069118;28;19920;-84
2022/11/24 01:32:26;;;;;;;;;;;8.80;83.90;;;;;;5067786;28;20381;-84
2022/11/24 01:34:51;;;;;;;;;;;8.80;83.90;;;;;;5068323;28;19927;-83
2022/11/24 01:37:17;;;;;;;;;;;8.80;84.00;;;;;;5087509;28;19916;-83
2022/11/24 01:39:42;;;;;;;;;;;8.70;83.70;;;;;;5068558;28;19957;-83
2022/11/24 01:42:08;;;;;;;;;;;8.80;84.00;;;;;;5084303;28;19916;-83
2022/11/24 01:44:33;;;;;;;;;;;8.70;83.90;;;;;;5066342;28;19956;-83
2022/11/24 01:46:59;;;;;;;;;;;8.70;83.80;;;;;;5081856;28;19917;-83
2022/11/24 01:49:28;;;;;;;;;;;8.80;83.70;;;;;;5083421;28;19920;-83
2022/11/24 01:51:53;;;;;;;;;;;8.80;83.70;;;;;;5089553;28;19930;-84
2022/11/24 01:54:21;;;;;;;;;;;8.80;83.60;;;;;;5093137;28;19916;-83
2022/11/24 01:56:48;;;;;;;;;;;8.70;83.90;;;;;;5071208;28;19924;-83
2022/11/24 01:59:14;;;;;;;;;;;8.80;83.60;;;;;;5069021;28;19912;-85
2022/11/24 02:01:40;;;;;;;;;;;8.70;83.80;;;;;;5083714;28;19939;-83
2022/11/24 02:04:08;;;;;;;;;;;8.60;83.90;;;;;;5075033;28;20369;-83
2022/11/24 02:06:35;;;;;;;;;;;8.60;83.90;;;;;;5074967;28;19920;-83
2022/11/24 02:09:20;;;;;;;;;;;8.60;83.90;;;;;;5100614;28;19983;-83
2022/11/24 02:11:46;;;;;;;;;;;8.60;83.90;;;;;;5098057;28;19920;-84
2022/11/24 02:14:12;;;;;;;;;;;8.60;84.20;;;;;;5092675;28;20007;-83
2022/11/24 02:16:40;;;;;;;;;;;8.60;84.20;;;;;;5073234;28;19916;-84
2022/11/24 02:19:24;;;;;;;;;;;8.80;83.80;;;;;;5081775;28;19983;-82
2022/11/24 02:21:50;;;;;;;;;;;8.70;83.70;;;;;;5083983;28;19913;-83
2022/11/24 02:24:22;;;;;;;;;;;8.70;83.70;;;;;;5095072;28;19912;-83
2022/11/24 02:26:48;;;;;;;;;;;8.80;84.00;;;;;;5092577;28;19947;-84
2022/11/24 02:29:15;;;;;;;;;;;8.80;83.70;;;;;;5086229;28;19977;-83
2022/11/24 02:31:43;;;;;;;;;;;8.80;84.00;;;;;;5079119;28;19916;-83
2022/11/24 02:34:08;;;;;;;;;;;8.80;83.70;;;;;;5076877;28;20476;-84
2022/11/24 02:36:34;;;;;;;;;;;8.90;83.70;;;;;;5094571;28;19924;-84
2022/11/24 02:38:59;;;;;;;;;;;8.90;83.30;;;;;;5075619;28;19920;-83
2022/11/24 02:41:26;;;;;;;;;;;9.00;83.50;;;;;;5071726;28;21356;-83
2022/11/24 02:43:54;;;;;;;;;;;9.10;82.90;;;;;;5091326;28;20432;-83
2022/11/24 02:46:19;;;;;;;;;;;9.00;83.20;;;;;;5094751;28;19913;-83
2022/11/24 02:48:45;;;;;;;;;;;9.10;82.70;;;;;;5092215;28;19984;-84
2022/11/24 02:51:10;;;;;;;;;;;9.00;82.60;;;;;;5091870;28;20297;-83
2022/11/24 02:53:35;;;;;;;;;;;9.00;82.90;;;;;;5091779;28;19919;-83
2022/11/24 02:56:01;;;;;;;;;;;9.00;83.10;;;;;;5093044;28;19919;-84
2022/11/24 02:58:26;;;;;;;;;;;9.00;83.00;;;;;;5068989;28;19916;-83
2022/11/24 03:00:53;;;;;;;;;;;8.90;83.00;;;;;;5068491;28;19986;-83
2022/11/24 03:03:19;;;;;;;;;;;9.00;83.00;;;;;;5087010;28;19912;-83
2022/11/24 03:05:45;;;;;;;;;;;8.90;83.10;;;;;;5086547;28;20285;-83
2022/11/24 03:08:11;;;;;;;;;;;8.90;83.20;;;;;;5070110;28;19912;-83
2022/11/24 03:10:37;;;;;;;;;;;8.90;83.20;;;;;;5070158;28;19912;-84
2022/11/24 03:13:02;;;;;;;;;;;8.90;83.30;;;;;;5067523;28;19927;-83
2022/11/24 03:15:28;;;;;;;;;;;8.90;83.10;;;;;;5088746;28;19916;-83
2022/11/24 03:17:55;;;;;;;;;;;8.80;83.20;;;;;;5084207;28;19977;-83
2022/11/24 03:20:20;;;;;;;;;;;8.90;83.10;;;;;;5072871;28;20288;-83
2022/11/24 03:22:45;;;;;;;;;;;8.90;83.10;;;;;;5097724;28;19943;-83
2022/11/24 03:25:11;;;;;;;;;;;8.90;83.30;;;;;;5087170;28;19912;-82
2022/11/24 03:27:36;;;;;;;;;;;8.90;83.40;;;;;;5082537;28;20518;-83
2022/11/24 03:30:02;;;;;;;;;;;8.80;83.40;;;;;;5099417;28;20305;-82
2022/11/24 03:32:28;;;;;;;;;;;8.90;83.30;;;;;;5108781;28;19926;-84
2022/11/24 03:34:53;;;;;;;;;;;8.80;83.20;;;;;;5077367;28;19912;-84
2022/11/24 03:37:19;;;;;;;;;;;8.80;83.40;;;;;;5074343;28;19916;-84
2022/11/24 03:39:45;;;;;;;;;;;8.80;83.70;;;;;;5073552;28;20406;-83
2022/11/24 03:42:10;;;;;;;;;;;8.90;83.40;;;;;;5076695;28;20022;-84
2022/11/24 03:44:36;;;;;;;;;;;9.00;83.00;;;;;;5072552;28;19938;-84
2022/11/24 03:47:01;;;;;;;;;;;9.00;83.00;;;;;;5088518;28;19957;-83
2022/11/24 03:49:26;;;;;;;;;;;9.10;82.70;;;;;;5072180;28;19919;-83
2022/11/24 03:51:52;;;;;;;;;;;9.00;83.40;;;;;;5074734;28;20007;-83
2022/11/24 03:54:17;;;;;;;;;;;9.00;83.60;;;;;;5093767;28;19962;-84
2022/11/24 03:56:43;;;;;;;;;;;9.00;83.80;;;;;;5089376;28;20928;-83
2022/11/24 03:59:08;;;;;;;;;;;9.00;83.70;;;;;;5089197;28;20396;-83
2022/11/24 04:01:34;;;;;;;;;;;9.00;84.00;;;;;;5070349;28;20505;-83
2022/11/24 04:03:59;;;;;;;;;;;9.00;83.70;;;;;;5082848;28;19969;-83
2022/11/24 04:06:24;;;;;;;;;;;8.80;83.90;;;;;;5069367;28;19920;-82
2022/11/24 04:08:50;;;;;;;;;;;8.80;83.80;;;;;;5066749;28;19920;-83
2022/11/24 04:14:00;;;;;;;;;;;8.90;84.00;;;;;;5083182;28;20185;-82
2022/11/24 04:16:25;;;;;;;;;;;8.90;83.80;;;;;;5069109;28;19912;-83
2022/11/24 04:18:53;;;;;;;;;;;8.90;83.90;;;;;;5084621;28;21217;-83
2022/11/24 04:21:19;;;;;;;;;;;8.90;84.00;;;;;;5069902;28;19919;-82
2022/11/24 04:23:45;;;;;;;;;;;9.00;83.70;;;;;;5068208;28;19916;-83
2022/11/24 04:26:10;;;;;;;;;;;9.00;83.90;;;;;;5071640;28;20281;-82
2022/11/24 04:28:36;;;;;;;;;;;9.00;83.80;;;;;;5082550;28;20175;-83
2022/11/24 04:31:03;;;;;;;;;;;9.10;83.50;;;;;;5085001;28;20292;-83
2022/11/24 04:33:28;;;;;;;;;;;9.10;83.30;;;;;;5066836;28;20030;-83
2022/11/24 04:35:54;;;;;;;;;;;9.10;83.30;;;;;;5070660;28;20002;-83
2022/11/24 04:38:19;;;;;;;;;;;9.10;83.00;;;;;;5088987;28;19927;-84
2022/11/24 04:40:44;;;;;;;;;;;9.20;83.00;;;;;;5068239;28;19955;-83
2022/11/24 04:43:10;;;;;;;;;;;9.20;83.20;;;;;;5086748;28;19920;-83
2022/11/24 04:45:36;;;;;;;;;;;9.20;83.60;;;;;;5088514;28;19916;-82
2022/11/24 04:48:02;;;;;;;;;;;9.20;84.20;;;;;;5085543;28;20007;-83
2022/11/24 04:50:28;;;;;;;;;;;9.20;84.60;;;;;;5072920;28;19999;-83
2022/11/24 04:52:53;;;;;;;;;;;9.20;85.10;;;;;;5071937;28;19908;-83
2022/11/24 04:55:18;;;;;;;;;;;9.20;85.50;;;;;;5070991;28;19966;-82
2022/11/24 04:57:44;;;;;;;;;;;9.20;86.00;;;;;;5068997;28;19920;-83
2022/11/24 05:00:10;;;;;;;;;;;9.10;85.60;;;;;;5068559;28;20006;-82
2022/11/24 05:02:36;;;;;;;;;;;9.20;85.80;;;;;;5070416;28;19918;-83
2022/11/24 05:05:01;;;;;;;;;;;9.20;85.50;;;;;;5069886;28;19916;-82
2022/11/24 05:07:27;;;;;;;;;;;9.20;85.70;;;;;;5070785;28;19912;-82
2022/11/24 05:12:38;;;;;;;;;;;9.20;85.40;;;;;;5104863;28;19968;-83
2022/11/24 05:15:04;;;;;;;;;;;9.20;85.10;;;;;;5085724;28;19912;-82
2022/11/24 05:17:37;;;;;;;;;;;9.10;85.30;;;;;;5070537;28;19921;-83
2022/11/24 05:20:04;;;;;;;;;;;9.20;85.60;;;;;;5086211;28;19937;-83
2022/11/24 05:22:30;;;;;;;;;;;9.20;85.40;;;;;;5066611;28;20278;-83
2022/11/24 05:24:56;;;;;;;;;;;9.20;85.50;;;;;;5072791;28;20430;-82
2022/11/24 05:27:21;;;;;;;;;;;9.20;85.40;;;;;;5077061;28;19912;-82
2022/11/24 05:29:47;;;;;;;;;;;9.30;84.60;;;;;;5072677;28;20373;-82
2022/11/24 05:32:12;;;;;;;;;;;9.30;84.50;;;;;;5066251;28;19913;-82
2022/11/24 05:34:38;;;;;;;;;;;9.30;84.70;;;;;;5077281;28;19916;-83
2022/11/24 05:37:03;;;;;;;;;;;9.30;85.00;;;;;;5074649;28;19924;-83
2022/11/24 05:39:33;;;;;;;;;;;9.30;85.10;;;;;;5074079;28;19919;-83
2022/11/24 05:41:58;;;;;;;;;;;9.40;84.40;;;;;;5091087;28;19912;-83
2022/11/24 05:44:24;;;;;;;;;;;9.30;84.60;;;;;;5072739;28;19920;-83
2022/11/24 05:46:49;;;;;;;;;;;9.30;85.10;;;;;;5087546;28;19916;-83
2022/11/24 05:49:15;;;;;;;;;;;9.30;84.90;;;;;;5094026;28;19982;-83
2022/11/24 05:51:40;;;;;;;;;;;9.20;84.70;;;;;;5093791;28;20012;-83
2022/11/24 05:54:06;;;;;;;;;;;9.30;84.70;;;;;;5079531;28;19919;-83
2022/11/24 05:56:31;;;;;;;;;;;9.30;84.60;;;;;;5092165;28;19919;-83
2022/11/24 05:58:57;;;;;;;;;;;9.30;84.90;;;;;;5071117;28;19916;-82
2022/11/24 06:01:22;;;;;;;;;;;9.30;84.50;;;;;;5086019;28;19943;-83
2022/11/24 06:03:48;;;;;;;;;;;9.40;84.20;;;;;;5085750;28;19912;-83
2022/11/24 06:06:13;;;;;;;;;;;9.40;84.20;;;;;;5075959;28;20292;-86
2022/11/24 06:08:38;;;;;;;;;;;9.50;84.70;;;;;;5074758;28;19923;-85
2022/11/24 06:11:16;;;;;;;;;;;9.50;84.20;;;;;;5072231;28;19923;-84
2022/11/24 06:13:43;;;;;;;;;;;9.50;83.50;;;;;;5072299;28;20365;-84
2022/11/24 06:16:09;;;;;;;;;;;9.50;83.20;;;;;;5074250;28;19931;-84
2022/11/24 06:18:35;;;;;;;;;;;9.50;83.60;;;;;;5075753;28;19916;-85
2022/11/24 06:21:03;;;;;;;;;;;9.50;83.70;;;;;;5078730;28;20369;-84
2022/11/24 06:23:29;;;;;;;;;;;9.60;83.40;;;;;;5068355;28;19913;-83
2022/11/24 06:25:57;;;;;;;;;;;9.50;83.10;;;;;;5093014;28;19919;-84
2022/11/24 06:28:22;;;;;;;;;;;9.50;83.20;;;;;;5075903;28;19916;-86
2022/11/24 06:30:48;;;;;;;;;;;9.50;83.30;;;;;;5074575;28;19920;-86
2022/11/24 06:33:13;;;;;;;;;;;9.50;83.60;;;;;;5073937;28;19920;-86
2022/11/24 06:35:39;;;;;;;;;;;9.60;83.10;;;;;;5068426;28;20365;-86
2022/11/24 06:38:07;;;;;;;;;;;9.50;83.50;;;;;;5078403;28;19920;-87
2022/11/24 06:40:33;;;;;;;;;;;9.50;83.50;;;;;;5066496;28;19912;-86
2022/11/24 06:42:58;;;;;;;;;;;9.60;83.50;;;;;;5067849;28;19998;-84
2022/11/24 06:45:24;;;;;;;;;;;9.40;83.10;;;;;;5072321;28;19935;-84
2022/11/24 06:47:52;;;;;;;;;;;9.50;83.60;;;;;;5093945;28;19954;-81
2022/11/24 06:50:17;;;;;;;;;;;9.40;83.20;;;;;;5101042;28;19916;-81
2022/11/24 06:52:43;;;;;;;;;;;9.40;83.50;;;;;;5095948;28;19925;-82
2022/11/24 06:55:08;;;;;;;;;;;9.30;83.60;;;;;;5088069;28;20332;-81
2022/11/24 06:57:34;;;;;;;;;;;9.30;83.60;;;;;;5086868;28;19924;-81
2022/11/24 06:59:59;;;;;;;;;;;9.30;83.70;;;;;;5106793;28;20369;-82
2022/11/24 07:02:25;;;;;;;;;;;9.30;83.70;;;;;;5085313;28;19931;-82
2022/11/24 07:04:50;;;;;;;;;;;9.30;83.20;;;;;;5089381;28;19908;-81
2022/11/24 07:07:15;;;;;;;;;;;9.30;82.80;;;;;;5105588;28;19967;-82
2022/11/24 07:09:41;;;;;;;;;;;9.40;82.90;;;;;;5087192;28;19919;-81
2022/11/24 07:12:07;;;;;;;;;;;9.30;82.80;;;;;;5107898;28;19908;-82
2022/11/24 07:14:32;;;;;;;;;;;9.30;83.10;;;;;;5080216;28;20274;-82
2022/11/24 07:16:57;;;;;;;;;;;9.30;82.60;;;;;;5102727;28;20006;-81
2022/11/24 07:19:23;;;;;;;;;;;9.20;83.00;;;;;;5103521;28;19919;-81
2022/11/24 07:21:48;;;;;;;;;;;9.20;83.00;;;;;;5105610;28;19908;-82
2022/11/24 07:24:14;;;;;;;;;;;9.20;82.90;;;;;;5076844;28;19913;-82
2022/11/24 07:26:39;;;;;;;;;;;9.20;82.90;;;;;;5093689;28;19946;-81
2022/11/24 07:29:05;;;;;;;;;;;9.20;83.00;;;;;;5116564;28;19988;-81
2022/11/24 07:31:30;;;;;;;;;;;9.20;82.80;;;;;;5098485;28;19915;-80
2022/11/24 07:33:56;;;;;;;;;;;9.20;82.20;;;;;;5089811;28;19915;-82
2022/11/24 07:36:24;;;;;;;;;;;9.10;82.20;;;;;;5087725;28;19969;-82
2022/11/24 07:38:49;;;;;;;;;;;9.20;82.40;;;;;;5079644;28;19923;-82
2022/11/24 07:41:15;;;;;;;;;;;9.30;82.00;;;;;;5105823;28;19908;-82
2022/11/24 07:43:41;;;;;;;;;;;9.30;82.00;;;;;;5086919;28;20123;-82
2022/11/24 07:46:14;;;;;;;;;;;9.20;82.10;;;;;;5085720;28;20049;-81
2022/11/24 07:48:39;;;;;;;;;;;9.20;82.00;;;;;;5077922;28;19979;-82
2022/11/24 07:51:05;;;;;;;;;;;9.30;81.60;;;;;;5086779;28;19916;-83
2022/11/24 07:53:31;;;;;;;;;;;9.40;81.30;;;;;;5104543;28;19938;-82
2022/11/24 07:56:01;;;;;;;;;;;9.40;81.00;;;;;;5104995;28;19961;-82
2022/11/24 07:58:27;;;;;;;;;;;9.40;81.30;;;;;;5104114;28;19912;-82
2022/11/24 08:00:53;;;;;;;;;;;9.30;81.00;;;;;;5100776;28;19947;-83
2022/11/24 08:03:19;;;;;;;;;;;9.40;80.70;;;;;;5084711;28;19969;-82
2022/11/24 08:05:52;;;;;;;;;;;9.40;80.90;;;;;;5083862;28;19922;-82
2022/11/24 08:08:17;;;;;;;;;;;9.40;80.60;;;;;;5078321;28;19935;-83
2022/11/24 08:10:43;;;;;;;;;;;9.40;80.30;;;;;;5095063;28;20433;-83
2022/11/24 08:13:08;;;;;;;;;;;9.30;80.50;;;;;;5078386;28;19916;-83
2022/11/24 08:15:33;;;;;;;;;;;9.30;80.30;;;;;;5092586;28;19913;-82
2022/11/24 08:17:59;;;;;;;;;;;9.30;80.70;;;;;;5094637;28;19916;-82
2022/11/24 08:20:25;;;;;;;;;;;9.30;81.10;;;;;;5078372;28;19944;-83
2022/11/24 08:22:50;;;;;;;;;;;9.20;81.90;;;;;;5097048;28;19934;-81
2022/11/24 08:25:17;;;;;;;;;;;9.20;82.00;;;;;;5098228;28;19908;-82
2022/11/24 08:27:45;;;;;;;;;;;9.10;81.80;;;;;;5090982;28;19927;-82
2022/11/24 08:30:11;;;;;;;;;;;9.20;81.40;;;;;;5078515;28;19967;-82
2022/11/24 08:32:36;;;;;;;;;;;9.20;81.20;;;;;;5092680;28;19900;-83
2022/11/24 08:35:01;;;;;;;;;;;9.30;80.90;;;;;;5091512;28;19912;-84
2022/11/24 08:37:28;;;;;;;;;;;9.20;81.20;;;;;;5105702;28;19922;-83
2022/11/24 08:39:53;;;;;;;;;;;9.20;81.70;;;;;;5103435;28;19956;-83
2022/11/24 08:42:19;;;;;;;;;;;9.10;81.20;;;;;;5094700;28;19912;-83
2022/11/24 08:44:44;;;;;;;;;;;9.10;81.60;;;;;;5076939;28;19916;-83
2022/11/24 08:47:10;;;;;;;;;;;9.10;81.30;;;;;;5083757;28;19919;-83
2022/11/24 08:49:35;;;;;;;;;;;9.10;80.70;;;;;;5102052;28;19948;-83
2022/11/24 08:52:00;;;;;;;;;;;9.20;80.60;;;;;;5102459;28;19908;-83
2022/11/24 08:54:26;;;;;;;;;;;9.30;80.40;;;;;;5082605;28;19920;-82
2022/11/24 08:56:52;;;;;;;;;;;9.30;80.50;;;;;;5101035;28;19919;-83
2022/11/24 08:59:18;;;;;;;;;;;9.30;80.80;;;;;;5073405;28;19920;-83
2022/11/24 09:01:45;;;;;;;;;;;9.40;80.30;;;;;;5080258;28;22400;-83
2022/11/24 09:04:10;;;;;;;;;;;9.40;80.10;;;;;;5082164;28;19950;-83
2022/11/24 09:06:36;;;;;;;;;;;9.50;80.10;;;;;;5089430;28;20430;-83
2022/11/24 09:09:01;;;;;;;;;;;9.50;79.90;;;;;;5079744;28;19912;-83
2022/11/24 09:11:27;;;;;;;;;;;9.50;80.10;;;;;;5074501;28;19969;-82
2022/11/24 09:13:53;;;;;;;;;;;9.40;80.00;;;;;;5072852;28;19961;-83
2022/11/24 09:16:20;;;;;;;;;;;9.40;80.60;;;;;;5075982;28;19999;-84
2022/11/24 09:18:46;;;;;;;;;;;9.40;80.60;;;;;;5081716;28;19912;-84
2022/11/24 09:21:13;;;;;;;;;;;9.40;81.00;;;;;;5073159;28;19919;-85
2022/11/24 09:23:39;;;;;;;;;;;9.30;81.20;;;;;;5080659;28;20366;-85
2022/11/24 09:26:04;;;;;;;;;;;9.20;81.60;;;;;;5073986;28;19908;-86
2022/11/24 09:28:30;;;;;;;;;;;9.30;82.10;;;;;;5095086;28;19959;-85
2022/11/24 09:30:59;;;;;;;;;;;9.30;81.80;;;;;;5073834;28;19974;-85
2022/11/24 09:33:24;;;;;;;;;;;9.40;82.10;;;;;;5063223;28;19908;-85
2022/11/24 09:35:50;;;;;;;;;;;9.40;82.30;;;;;;5077844;28;19962;-85
2022/11/24 09:38:15;;;;;;;;;;;9.40;82.60;;;;;;5081755;28;19912;-85
2022/11/24 09:40:41;;;;;;;;;;;9.30;82.80;;;;;;5081435;28;20325;-84
2022/11/24 09:43:21;;;;;;;;;;;;;;;;;;;;;
2022/11/24 09:45:56;;;;;;;;;;;9.30;82.60;;;;;;5098346;28;19915;-85
2022/11/24 09:48:28;;;;;;;;;;;9.30;82.80;;;;;;5078422;28;20012;-83
2022/11/24 09:50:55;;;;;;;;;;;9.30;82.90;;;;;;5095650;28;19985;-85
2022/11/24 09:53:27;;;;;;;;;;;9.40;82.50;;;;;;5082067;28;19934;-85
2022/11/24 09:56:03;;;;;;;;;;;9.40;82.80;;;;;;5101520;28;19918;-84
2022/11/24 09:58:50;;;;;;;;;;;9.40;82.50;;;;;;5083676;28;19912;-84
2022/11/24 10:01:28;;;;;;;;;;;9.50;82.50;;;;;;5086539;28;19938;-83
2022/11/24 10:03:54;;;;;;;;;;;9.60;82.60;;;;;;5083505;28;20309;-83
2022/11/24 10:06:29;;;;;;;;;;;9.60;81.60;;;;;;5089676;28;19919;-84
2022/11/24 10:09:01;;;;;;;;;;;9.60;81.90;;;;;;5087189;28;20436;-82
2022/11/24 10:11:36;;;;;;;;;;;9.60;81.60;;;;;;5084272;28;19912;-84
2022/11/24 10:14:12;;;;;;;;;;;9.70;81.70;;;;;;5104174;28;19916;-88
2022/11/24 10:19:39;;;;;;;;;;;9.90;80.90;;;;;;5083371;28;19912;-88
2022/11/24 10:22:24;;;;;;;;;;;9.80;80.80;;;;;;5081326;28;19935;-88
2022/11/24 10:25:13;;;;;;;;;;;9.70;81.20;;;;;;5079820;28;19915;-88
2022/11/24 10:27:51;;;;;;;;;;;9.80;81.30;;;;;;5077058;28;20385;-88
2022/11/24 10:30:21;;;;;;;;;;;9.80;81.30;;;;;;5074503;28;19928;-87
2022/11/24 10:32:48;;;;;;;;;;;9.80;81.00;;;;;;5074836;28;19916;-87
2022/11/24 10:35:19;;;;;;;;;;;9.80;81.40;;;;;;5072440;28;19922;-86
2022/11/24 10:38:09;;;;;;;;;;;9.80;81.70;;;;;;5075810;28;19958;-88
2022/11/24 10:43:59;;;;;;;;;;;9.90;81.00;;;;;;5063757;28;19916;-87
2022/11/24 10:46:47;;;;;;;;;;;9.90;81.20;;;;;;5065734;28;19928;-86
2022/11/24 10:49:28;;;;;;;;;;;9.80;80.90;;;;;;5061543;28;19912;-86
2022/11/24 10:52:07;;;;;;;;;;;9.90;81.20;;;;;;5075702;28;20422;-87
2022/11/24 10:54:34;;;;;;;;;;;9.90;81.00;;;;;;5085510;28;19916;-87
2022/11/24 10:57:00;;;;;;;;;;;9.90;81.20;;;;;;5068756;28;19970;-85
2022/11/24 10:59:32;;;;;;;;;;;9.90;81.50;;;;;;5091778;28;19947;-85
2022/11/24 11:01:57;;;;;;;;;;;9.90;81.30;;;;;;5074904;28;19912;-85
2022/11/24 11:04:33;;;;;;;;;;;9.90;81.20;;;;;;5093094;28;19993;-89
2022/11/24 11:07:20;;;;;;;;;;;10.00;81.60;;;;;;5070730;28;19934;-88
2022/11/24 11:09:49;;;;;;;;;;;10.10;81.40;;;;;;5065023;28;19947;-88
2022/11/24 11:12:22;;;;;;;;;;;10.20;81.20;;;;;;5073754;28;19935;-88
2022/11/24 11:14:48;;;;;;;;;;;10.30;81.00;;;;;;5074805;28;19919;-87
2022/11/24 11:17:33;;;;;;;;;;;10.30;80.50;;;;;;5076459;28;19912;-87
2022/11/24 11:20:18;;;;;;;;;;;10.50;80.30;;;;;;5075501;28;19912;-87
2022/11/24 11:22:45;;;;;;;;;;;10.50;79.80;;;;;;5095059;28;19908;-86
2022/11/24 11:25:11;;;;;;;;;;;10.50;79.80;;;;;;5077941;28;19965;-86
2022/11/24 11:27:37;;;;;;;;;;;10.60;79.40;;;;;;5067681;28;19908;-86
2022/11/24 11:30:15;;;;;;;;;;;10.70;78.90;;;;;;5103695;28;19968;-85
2022/11/24 11:32:54;;;;;;;;;;;10.70;78.40;;;;;;5078206;28;19927;-86
2022/11/24 11:35:21;;;;;;;;;;;10.70;78.50;;;;;;5079032;28;19908;-86
2022/11/24 11:37:47;;;;;;;;;;;10.60;78.50;;;;;;5076610;28;20621;-84
2022/11/24 11:40:15;;;;;;;;;;;10.70;78.50;;;;;;5069451;28;20036;-85
2022/11/24 11:42:44;;;;;;;;;;;10.70;77.50;;;;;;5080003;28;19916;-85
2022/11/24 11:45:17;;;;;;;;;;;10.70;77.60;;;;;;5075719;28;20005;-84
2022/11/24 11:47:44;;;;;;;;;;;10.60;77.50;;;;;;5077753;28;20053;-84
2022/11/24 11:50:11;;;;;;;;;;;10.60;78.60;;;;;;5079346;28;19961;-86
2022/11/24 11:52:55;;;;;;;;;;;10.60;78.50;;;;;;5078732;28;19908;-85
2022/11/24 11:55:21;;;;;;;;;;;10.60;77.90;;;;;;5113830;28;19962;-85
2022/11/24 11:57:54;;;;;;;;;;;10.70;78.00;;;;;;5080209;28;19917;-85
2022/11/24 12:00:21;;;;;;;;;;;10.80;77.70;;;;;;5105672;28;19951;-85
2022/11/24 12:02:46;;;;;;;;;;;11.00;77.00;;;;;;5091129;28;20373;-86
2022/11/24 12:05:18;;;;;;;;;;;10.90;76.60;;;;;;5113003;28;20003;-87
2022/11/24 12:07:49;;;;;;;;;;;10.90;77.10;;;;;;5086092;28;19909;-87
2022/11/24 12:10:21;;;;;;;;;;;10.90;77.30;;;;;;5088842;28;20270;-87
2022/11/24 12:12:46;;;;;;;;;;;10.90;76.20;;;;;;5078668;28;20622;-84
2022/11/24 12:15:22;;;;;;;;;;;10.90;76.90;;;;;;5095979;28;19951;-84
2022/11/24 12:17:51;;;;;;;;;;;10.90;76.90;;;;;;5092088;28;20276;-84
2022/11/24 12:20:29;;;;;;;;;;;10.90;76.90;;;;;;5076431;28;19955;-82
2022/11/24 12:23:04;;;;;;;;;;;11.00;77.10;;;;;;5096442;28;20396;-84
2022/11/24 12:25:33;;;;;;;;;;;11.00;76.10;;;;;;5076263;28;19915;-83
2022/11/24 12:28:07;;;;;;;;;;;11.00;76.30;;;;;;5073694;28;19915;-83
2022/11/24 12:30:50;;;;;;;;;;;10.90;76.60;;;;;;5087235;28;19916;-83
2022/11/24 12:33:36;;;;;;;;;;;10.90;77.20;;;;;;5073409;28;20303;-84
2022/11/24 12:36:04;;;;;;;;;;;10.90;77.30;;;;;;5032913;28;20583;-83
2022/11/24 12:38:38;;;;;;;;;;;11.00;77.00;;;;;;5072206;28;19912;-82
2022/11/24 12:41:15;;;;;;;;;;;11.10;77.00;;;;;;5054697;28;20400;-83
2022/11/24 12:43:46;;;;;;;;;;;11.20;75.90;;;;;;5053607;28;20395;-83
2022/11/24 12:46:27;;;;;;;;;;;11.10;75.70;;;;;;5088730;28;19912;-83
2022/11/24 12:48:56;;;;;;;;;;;11.10;75.90;;;;;;5068641;28;19912;-84
2022/11/24 12:51:26;;;;;;;;;;;11.10;76.30;;;;;;5078278;28;19912;-82
2022/11/24 12:53:53;;;;;;;;;;;11.20;76.00;;;;;;5070592;28;19994;-82
2022/11/24 12:56:33;;;;;;;;;;;11.40;75.10;;;;;;5076908;28;19912;-83
2022/11/24 12:59:19;;;;;;;;;;;11.30;75.10;;;;;;5078616;28;19967;-84
2022/11/24 13:01:49;;;;;;;;;;;11.30;75.30;;;;;;5087301;28;19919;-84
2022/11/24 13:04:30;;;;;;;;;;;11.30;75.10;;;;;;5074934;28;19934;-84
2022/11/24 13:06:59;;;;;;;;;;;11.10;75.20;;;;;;5074837;28;19912;-85
2022/11/24 13:09:24;;;;;;;;;;;11.20;75.70;;;;;;5058056;28;19917;-84
2022/11/24 13:11:54;;;;;;;;;;;11.10;75.50;;;;;;5087583;28;19961;-85
2022/11/24 13:14:21;;;;;;;;;;;11.10;75.50;;;;;;5071410;28;19986;-84
2022/11/24 13:16:52;;;;;;;;;;;11.10;75.60;;;;;;5067131;28;19943;-86
2022/11/24 13:19:19;;;;;;;;;;;11.10;75.70;;;;;;5069280;28;20337;-85
2022/11/24 13:21:49;;;;;;;;;;;11.10;75.70;;;;;;5097618;28;20655;-83
2022/11/24 13:24:21;;;;;;;;;;;11.10;75.60;;;;;;5095276;28;19913;-83
2022/11/24 13:26:50;;;;;;;;;;;11.20;75.20;;;;;;5077036;28;20289;-82
2022/11/24 13:29:35;;;;;;;;;;;11.20;74.80;;;;;;5074979;28;20047;-82
2022/11/24 13:32:00;;;;;;;;;;;11.10;74.20;;;;;;5073863;28;19987;-83
2022/11/24 13:34:38;;;;;;;;;;;11.00;75.00;;;;;;5093810;28;19904;-80
2022/11/24 13:37:36;;;;;;;;;;;11.00;74.80;;;;;;5085203;28;19916;-82
2022/11/24 13:40:21;;;;;;;;;;;11.00;75.40;;;;;;5052249;28;19912;-83
2022/11/24 13:42:53;;;;;;;;;;;10.90;75.60;;;;;;5071386;28;19919;-83
2022/11/24 13:45:37;;;;;;;;;;;10.90;76.20;;;;;;5067025;28;19913;-83
2022/11/24 13:48:17;;;;;;;;;;;10.90;75.80;;;;;;5091293;28;20434;-83
2022/11/24 13:50:49;;;;;;;;;;;10.80;76.30;;;;;;5066607;28;19912;-82
2022/11/24 13:53:17;;;;;;;;;;;10.80;76.30;;;;;;5091983;28;19909;-82
2022/11/24 13:55:53;;;;;;;;;;;10.90;76.10;;;;;;5073918;28;19916;-82
2022/11/24 13:58:31;;;;;;;;;;;11.00;76.10;;;;;;5072303;28;19916;-82
2022/11/24 14:01:06;;;;;;;;;;;10.90;76.10;;;;;;5073883;28;20389;-82
2022/11/24 14:03:34;;;;;;;;;;;10.90;75.50;;;;;;5056595;28;19969;-82
2022/11/24 14:06:01;;;;;;;;;;;11.00;75.10;;;;;;5078806;28;19919;-82
2022/11/24 14:08:34;;;;;;;;;;;10.90;75.30;;;;;;5071103;28;19919;-81
2022/11/24 14:11:00;;;;;;;;;;;10.90;75.10;;;;;;5070948;28;19923;-82
2022/11/24 14:13:27;;;;;;;;;;;10.90;75.20;;;;;;5073000;28;19912;-83
2022/11/24 14:15:58;;;;;;;;;;;10.80;75.40;;;;;;5085245;28;20007;-82
2022/11/24 14:18:24;;;;;;;;;;;10.80;75.50;;;;;;5076517;28;19916;-83
2022/11/24 14:20:49;;;;;;;;;;;10.80;75.40;;;;;;5080030;28;19916;-83
2022/11/24 14:23:15;;;;;;;;;;;10.90;75.40;;;;;;5094560;28;20282;-82
2022/11/24 14:25:45;;;;;;;;;;;11.00;74.60;;;;;;5076097;28;19920;-83
2022/11/24 14:28:18;;;;;;;;;;;11.00;74.60;;;;;;5091513;28;20001;-83
2022/11/24 14:30:44;;;;;;;;;;;11.00;74.70;;;;;;5074888;28;19927;-82
2022/11/24 14:33:11;;;;;;;;;;;11.00;74.70;;;;;;5094701;28;19912;-82
2022/11/24 14:35:41;;;;;;;;;;;10.90;74.90;;;;;;5078440;28;19915;-87
2022/11/24 14:38:09;;;;;;;;;;;10.80;75.10;;;;;;5076186;28;19985;-84
2022/11/24 14:40:39;;;;;;;;;;;10.80;75.10;;;;;;5079333;28;19912;-84
2022/11/24 14:43:05;;;;;;;;;;;10.70;75.40;;;;;;5077375;28;19919;-85
2022/11/24 14:45:31;;;;;;;;;;;10.70;75.40;;;;;;5093256;28;19916;-84